sensor_id;sensor_type;location;lat;lon;timestamp;P1;durP1;ratioP1;P2;durP2;ratioP2
9938;SDS011;5008;50.656;7.188;2023-03-05T05:15:46;4.93;;;1.70;;
9938;SDS011;5008;50.656;7.188;2023-03-05T05:18:12;3.33;;;1.50;;
9938;SDS011;5008;50.656;7.188;2023-03-05T05:20:39;4.40;;;1.93;;
9938;SDS011;5008;50.656;7.188;2023-03-05T05:23:06;3.10;;;1.70;;
9938;SDS011;5008;50.656;7.188;2023-03-05T05:25:33;5.13;;;1.63;;
9938;SDS011;5008;50.656;7.188;2023-03-05T05:30:30;4.90;;;2.10;;
9938;SDS011;5008;50.656;7.188;2023-03-05T05:32:59;4.70;;;1.80;;
9938;SDS011;5008;50.656;7.188;2023-03-05T05:35:26;3.63;;;1.73;;
9938;SDS011;5008;50.656;7.188;2023-03-05T05:37:52;5.27;;;1.93;;
9938;SDS011;5008;50.656;7.188;2023-03-05T05:40:19;4.30;;;2.17;;
9938;SDS011;5008;50.656;7.188;2023-03-05T05:42:46;3.90;;;2.20;;
9938;SDS011;5008;50.656;7.188;2023-03-05T05:45:13;4.43;;;1.73;;
9938;SDS011;5008;50.656;7.188;2023-03-05T05:47:40;6.10;;;2.03;;
9938;SDS011;5008;50.656;7.188;2023-03-05T05:50:09;4.30;;;1.70;;
9938;SDS011;5008;50.656;7.188;2023-03-05T05:52:36;4.70;;;1.53;;
9938;SDS011;5008;50.656;7.188;2023-03-05T05:55:04;4.00;;;1.93;;
9938;SDS011;5008;50.656;7.188;2023-03-05T05:57:32;5.83;;;1.60;;
9938;SDS011;5008;50.656;7.188;2023-03-05T05:59:59;4.00;;;1.80;;
9938;SDS011;5008;50.656;7.188;2023-03-05T06:02:26;2.47;;;1.20;;
9938;SDS011;5008;50.656;7.188;2023-03-05T06:04:52;4.87;;;1.57;;
9938;SDS011;5008;50.656;7.188;2023-03-05T06:07:21;6.87;;;1.90;;
9938;SDS011;5008;50.656;7.188;2023-03-05T06:09:47;3.23;;;1.70;;
9938;SDS011;5008;50.656;7.188;2023-03-05T06:12:16;6.27;;;1.90;;
9938;SDS011;5008;50.656;7.188;2023-03-05T06:14:45;3.40;;;1.80;;
9938;SDS011;5008;50.656;7.188;2023-03-05T06:17:11;5.63;;;1.60;;
9938;SDS011;5008;50.656;7.188;2023-03-05T06:19:38;4.23;;;1.60;;
9938;SDS011;5008;50.656;7.188;2023-03-05T06:22:05;4.37;;;1.80;;
9938;SDS011;5008;50.656;7.188;2023-03-05T06:24:34;4.73;;;2.00;;
9938;SDS011;5008;50.656;7.188;2023-03-05T06:27:03;4.53;;;1.83;;
9938;SDS011;5008;50.656;7.188;2023-03-05T06:29:30;8.97;;;2.20;;
9938;SDS011;5008;50.656;7.188;2023-03-05T06:31:57;4.27;;;1.60;;
9938;SDS011;5008;50.656;7.188;2023-03-05T06:34:24;2.73;;;1.43;;
9938;SDS011;5008;50.656;7.188;2023-03-05T06:36:57;3.03;;;1.60;;
9938;SDS011;5008;50.656;7.188;2023-03-05T06:39:24;3.53;;;1.60;;
9938;SDS011;5008;50.656;7.188;2023-03-05T06:41:52;5.30;;;2.10;;
9938;SDS011;5008;50.656;7.188;2023-03-05T06:44:19;2.83;;;1.80;;
9938;SDS011;5008;50.656;7.188;2023-03-05T06:46:46;4.73;;;1.70;;
9938;SDS011;5008;50.656;7.188;2023-03-05T06:49:12;3.50;;;1.53;;
9938;SDS011;5008;50.656;7.188;2023-03-05T06:51:40;3.97;;;1.90;;
9938;SDS011;5008;50.656;7.188;2023-03-05T06:54:08;6.03;;;1.83;;
9938;SDS011;5008;50.656;7.188;2023-03-05T06:56:37;6.53;;;1.90;;
9938;SDS011;5008;50.656;7.188;2023-03-05T06:59:06;4.47;;;1.80;;
9938;SDS011;5008;50.656;7.188;2023-03-05T07:01:34;4.27;;;1.80;;
9938;SDS011;5008;50.656;7.188;2023-03-05T07:04:01;3.63;;;2.20;;
9938;SDS011;5008;50.656;7.188;2023-03-05T07:06:30;6.90;;;2.77;;
9938;SDS011;5008;50.656;7.188;2023-03-05T07:08:58;4.97;;;2.10;;
9938;SDS011;5008;50.656;7.188;2023-03-05T07:11:26;7.40;;;2.43;;
9938;SDS011;5008;50.656;7.188;2023-03-05T07:13:53;5.67;;;2.33;;
9938;SDS011;5008;50.656;7.188;2023-03-05T07:16:22;3.60;;;2.10;;
9938;SDS011;5008;50.656;7.188;2023-03-05T07:18:52;5.90;;;2.20;;
9938;SDS011;5008;50.656;7.188;2023-03-05T07:21:20;4.37;;;2.00;;
9938;SDS011;5008;50.656;7.188;2023-03-05T07:23:48;6.73;;;2.37;;
9938;SDS011;5008;50.656;7.188;2023-03-05T07:26:16;4.90;;;1.90;;
9938;SDS011;5008;50.656;7.188;2023-03-05T07:28:42;2.57;;;1.87;;
9938;SDS011;5008;50.656;7.188;2023-03-05T07:31:11;5.50;;;2.30;;
9938;SDS011;5008;50.656;7.188;2023-03-05T07:33:40;4.47;;;2.10;;
9938;SDS011;5008;50.656;7.188;2023-03-05T07:36:13;5.40;;;2.23;;
9938;SDS011;5008;50.656;7.188;2023-03-05T07:38:40;3.50;;;2.20;;
9938;SDS011;5008;50.656;7.188;2023-03-05T07:41:08;4.00;;;2.27;;
9938;SDS011;5008;50.656;7.188;2023-03-05T07:43:36;5.43;;;2.37;;
9938;SDS011;5008;50.656;7.188;2023-03-05T07:46:04;5.90;;;2.60;;
9938;SDS011;5008;50.656;7.188;2023-03-05T07:48:31;7.13;;;2.57;;
9938;SDS011;5008;50.656;7.188;2023-03-05T07:51:02;3.80;;;2.40;;
9938;SDS011;5008;50.656;7.188;2023-03-05T07:53:32;5.70;;;2.40;;
9938;SDS011;5008;50.656;7.188;2023-03-05T07:55:59;5.80;;;2.67;;
9938;SDS011;5008;50.656;7.188;2023-03-05T07:58:26;7.63;;;2.57;;
9938;SDS011;5008;50.656;7.188;2023-03-05T08:00:53;6.00;;;2.50;;
9938;SDS011;5008;50.656;7.188;2023-03-05T08:03:20;7.47;;;3.03;;
9938;SDS011;5008;50.656;7.188;2023-03-05T08:05:47;3.57;;;2.30;;
9938;SDS011;5008;50.656;7.188;2023-03-05T08:08:16;6.43;;;2.77;;
9938;SDS011;5008;50.656;7.188;2023-03-05T08:10:43;7.90;;;3.20;;
9938;SDS011;5008;50.656;7.188;2023-03-05T08:13:10;5.90;;;2.97;;
9938;SDS011;5008;50.656;7.188;2023-03-05T08:15:37;5.40;;;2.60;;
9938;SDS011;5008;50.656;7.188;2023-03-05T08:18:06;3.53;;;2.83;;
9938;SDS011;5008;50.656;7.188;2023-03-05T08:20:33;4.17;;;2.57;;
9938;SDS011;5008;50.656;7.188;2023-03-05T08:23:00;5.93;;;3.40;;
9938;SDS011;5008;50.656;7.188;2023-03-05T08:25:29;8.37;;;3.23;;
9938;SDS011;5008;50.656;7.188;2023-03-05T08:27:56;6.43;;;3.13;;
9938;SDS011;5008;50.656;7.188;2023-03-05T08:30:24;5.00;;;3.17;;
9938;SDS011;5008;50.656;7.188;2023-03-05T08:32:52;5.90;;;3.10;;
9938;SDS011;5008;50.656;7.188;2023-03-05T08:35:19;5.47;;;3.10;;
9938;SDS011;5008;50.656;7.188;2023-03-05T08:37:46;7.20;;;3.03;;
9938;SDS011;5008;50.656;7.188;2023-03-05T08:40:14;8.80;;;3.37;;
9938;SDS011;5008;50.656;7.188;2023-03-05T08:42:43;8.73;;;3.00;;
9938;SDS011;5008;50.656;7.188;2023-03-05T08:45:10;6.60;;;2.90;;
9938;SDS011;5008;50.656;7.188;2023-03-05T08:50:16;7.47;;;2.70;;
9938;SDS011;5008;50.656;7.188;2023-03-05T08:55:14;5.07;;;2.53;;
9938;SDS011;5008;50.656;7.188;2023-03-05T08:57:44;6.17;;;3.40;;
9938;SDS011;5008;50.656;7.188;2023-03-05T09:00:11;4.97;;;2.77;;
9938;SDS011;5008;50.656;7.188;2023-03-05T09:02:40;6.50;;;2.90;;
9938;SDS011;5008;50.656;7.188;2023-03-05T09:05:07;7.13;;;2.90;;
9938;SDS011;5008;50.656;7.188;2023-03-05T09:07:34;4.50;;;3.23;;
9938;SDS011;5008;50.656;7.188;2023-03-05T09:10:02;6.73;;;3.07;;
9938;SDS011;5008;50.656;7.188;2023-03-05T09:12:30;6.10;;;3.00;;
9938;SDS011;5008;50.656;7.188;2023-03-05T09:14:58;3.00;;;2.47;;
9938;SDS011;5008;50.656;7.188;2023-03-05T09:17:25;6.23;;;3.20;;
9938;SDS011;5008;50.656;7.188;2023-03-05T09:19:56;6.10;;;3.07;;
9938;SDS011;5008;50.656;7.188;2023-03-05T09:22:22;3.87;;;2.80;;
9938;SDS011;5008;50.656;7.188;2023-03-05T09:24:49;4.03;;;3.00;;
9938;SDS011;5008;50.656;7.188;2023-03-05T09:27:16;5.10;;;3.30;;
9938;SDS011;5008;50.656;7.188;2023-03-05T09:29:43;7.13;;;3.53;;
9938;SDS011;5008;50.656;7.188;2023-03-05T09:32:11;4.73;;;2.97;;
9938;SDS011;5008;50.656;7.188;2023-03-05T09:34:38;6.60;;;3.33;;
9938;SDS011;5008;50.656;7.188;2023-03-05T09:37:05;7.10;;;3.10;;
9938;SDS011;5008;50.656;7.188;2023-03-05T09:39:31;7.00;;;4.10;;
9938;SDS011;5008;50.656;7.188;2023-03-05T09:42:02;5.13;;;3.40;;
9938;SDS011;5008;50.656;7.188;2023-03-05T09:44:42;4.87;;;3.23;;
9938;SDS011;5008;50.656;7.188;2023-03-05T09:47:21;5.13;;;3.40;;
9938;SDS011;5008;50.656;7.188;2023-03-05T09:49:57;7.63;;;3.17;;
9938;SDS011;5008;50.656;7.188;2023-03-05T09:52:30;4.47;;;3.97;;
9938;SDS011;5008;50.656;7.188;2023-03-05T09:55:07;5.57;;;3.60;;
9938;SDS011;5008;50.656;7.188;2023-03-05T09:57:40;4.43;;;3.40;;
9938;SDS011;5008;50.656;7.188;2023-03-05T10:02:52;4.80;;;3.57;;
9938;SDS011;5008;50.656;7.188;2023-03-05T10:05:23;6.33;;;3.63;;
9938;SDS011;5008;50.656;7.188;2023-03-05T10:08:03;5.80;;;4.10;;
9938;SDS011;5008;50.656;7.188;2023-03-05T10:10:33;4.47;;;3.43;;
9938;SDS011;5008;50.656;7.188;2023-03-05T10:13:10;4.83;;;3.73;;
9938;SDS011;5008;50.656;7.188;2023-03-05T10:15:43;6.27;;;4.30;;
9938;SDS011;5008;50.656;7.188;2023-03-05T10:18:21;5.40;;;3.37;;
9938;SDS011;5008;50.656;7.188;2023-03-05T10:20:54;6.97;;;3.83;;
9938;SDS011;5008;50.656;7.188;2023-03-05T10:23:27;6.37;;;3.80;;
9938;SDS011;5008;50.656;7.188;2023-03-05T10:26:01;5.57;;;4.03;;
9938;SDS011;5008;50.656;7.188;2023-03-05T10:28:39;4.80;;;4.13;;
9938;SDS011;5008;50.656;7.188;2023-03-05T10:31:19;6.20;;;4.10;;
9938;SDS011;5008;50.656;7.188;2023-03-05T10:34:15;5.47;;;4.03;;
9938;SDS011;5008;50.656;7.188;2023-03-05T10:36:57;6.17;;;4.00;;
9938;SDS011;5008;50.656;7.188;2023-03-05T10:39:51;4.90;;;3.57;;
9938;SDS011;5008;50.656;7.188;2023-03-05T10:42:27;6.40;;;3.60;;
9938;SDS011;5008;50.656;7.188;2023-03-05T10:45:00;4.53;;;3.80;;
9938;SDS011;5008;50.656;7.188;2023-03-05T10:47:40;5.07;;;3.60;;
9938;SDS011;5008;50.656;7.188;2023-03-05T10:50:16;5.47;;;3.47;;
9938;SDS011;5008;50.656;7.188;2023-03-05T10:52:45;4.97;;;3.87;;
9938;SDS011;5008;50.656;7.188;2023-03-05T10:55:22;4.07;;;3.27;;
9938;SDS011;5008;50.656;7.188;2023-03-05T10:57:48;3.43;;;3.13;;
9938;SDS011;5008;50.656;7.188;2023-03-05T11:00:16;3.60;;;3.10;;
9938;SDS011;5008;50.656;7.188;2023-03-05T11:02:52;4.57;;;3.20;;
9938;SDS011;5008;50.656;7.188;2023-03-05T11:08:26;5.33;;;3.20;;
9938;SDS011;5008;50.656;7.188;2023-03-05T11:11:01;5.00;;;3.20;;
9938;SDS011;5008;50.656;7.188;2023-03-05T11:13:30;3.40;;;3.03;;
9938;SDS011;5008;50.656;7.188;2023-03-05T11:15:58;4.87;;;3.40;;
9938;SDS011;5008;50.656;7.188;2023-03-05T11:18:26;4.47;;;2.97;;
9938;SDS011;5008;50.656;7.188;2023-03-05T11:21:09;5.77;;;3.07;;
9938;SDS011;5008;50.656;7.188;2023-03-05T11:23:38;2.97;;;2.50;;
9938;SDS011;5008;50.656;7.188;2023-03-05T11:26:15;3.57;;;2.57;;
9938;SDS011;5008;50.656;7.188;2023-03-05T11:28:56;3.23;;;2.57;;
9938;SDS011;5008;50.656;7.188;2023-03-05T11:31:26;4.27;;;2.50;;
9938;SDS011;5008;50.656;7.188;2023-03-05T11:33:55;3.13;;;2.20;;
9938;SDS011;5008;50.656;7.188;2023-03-05T11:36:26;4.40;;;2.70;;
9938;SDS011;5008;50.656;7.188;2023-03-05T11:38:56;3.00;;;2.50;;
9938;SDS011;5008;50.656;7.188;2023-03-05T11:41:32;4.57;;;2.30;;
9938;SDS011;5008;50.656;7.188;2023-03-05T11:44:03;4.17;;;2.10;;
9938;SDS011;5008;50.656;7.188;2023-03-05T11:46:37;2.40;;;2.20;;
9938;SDS011;5008;50.656;7.188;2023-03-05T11:49:07;3.53;;;2.40;;
9938;SDS011;5008;50.656;7.188;2023-03-05T11:51:39;2.70;;;2.50;;
9938;SDS011;5008;50.656;7.188;2023-03-05T11:54:13;3.37;;;2.70;;
9938;SDS011;5008;50.656;7.188;2023-03-05T11:59:15;4.63;;;2.77;;
9938;SDS011;5008;50.656;7.188;2023-03-05T12:01:57;3.27;;;2.87;;
9938;SDS011;5008;50.656;7.188;2023-03-05T12:04:25;3.03;;;2.70;;
9938;SDS011;5008;50.656;7.188;2023-03-05T12:06:54;3.97;;;2.93;;
9938;SDS011;5008;50.656;7.188;2023-03-05T12:09:26;3.40;;;2.77;;
9938;SDS011;5008;50.656;7.188;2023-03-05T12:12:03;3.23;;;2.80;;
9938;SDS011;5008;50.656;7.188;2023-03-05T12:14:35;4.63;;;3.10;;
9938;SDS011;5008;50.656;7.188;2023-03-05T12:17:08;4.83;;;3.03;;
9938;SDS011;5008;50.656;7.188;2023-03-05T12:19:40;3.30;;;3.00;;
9938;SDS011;5008;50.656;7.188;2023-03-05T12:22:20;4.30;;;3.43;;
9938;SDS011;5008;50.656;7.188;2023-03-05T12:24:49;3.60;;;3.27;;
9938;SDS011;5008;50.656;7.188;2023-03-05T12:27:30;4.00;;;3.33;;
9938;SDS011;5008;50.656;7.188;2023-03-05T12:29:59;5.80;;;3.77;;
9938;SDS011;5008;50.656;7.188;2023-03-05T12:35:26;5.03;;;3.57;;
9938;SDS011;5008;50.656;7.188;2023-03-05T12:37:59;5.13;;;3.83;;
9938;SDS011;5008;50.656;7.188;2023-03-05T12:40:38;4.40;;;3.63;;
9938;SDS011;5008;50.656;7.188;2023-03-05T12:43:10;4.30;;;3.90;;
9938;SDS011;5008;50.656;7.188;2023-03-05T12:48:49;5.47;;;4.40;;
9938;SDS011;5008;50.656;7.188;2023-03-05T12:51:29;5.67;;;4.13;;
9938;SDS011;5008;50.656;7.188;2023-03-05T12:54:24;4.23;;;3.83;;
9938;SDS011;5008;50.656;7.188;2023-03-05T12:56:54;5.43;;;4.17;;
9938;SDS011;5008;50.656;7.188;2023-03-05T12:59:24;4.80;;;4.40;;
9938;SDS011;5008;50.656;7.188;2023-03-05T13:01:56;4.90;;;4.50;;
9938;SDS011;5008;50.656;7.188;2023-03-05T13:04:28;8.47;;;4.60;;
9938;SDS011;5008;50.656;7.188;2023-03-05T13:06:57;5.17;;;4.57;;
9938;SDS011;5008;50.656;7.188;2023-03-05T13:09:28;5.00;;;4.60;;
9938;SDS011;5008;50.656;7.188;2023-03-05T13:11:58;5.87;;;5.30;;
9938;SDS011;5008;50.656;7.188;2023-03-05T13:14:34;5.93;;;5.20;;
9938;SDS011;5008;50.656;7.188;2023-03-05T13:19:57;6.70;;;6.00;;
9938;SDS011;5008;50.656;7.188;2023-03-05T13:22:25;6.13;;;5.60;;
9938;SDS011;5008;50.656;7.188;2023-03-05T13:25:13;6.53;;;5.83;;
9938;SDS011;5008;50.656;7.188;2023-03-05T13:27:44;5.90;;;5.37;;
9938;SDS011;5008;50.656;7.188;2023-03-05T13:30:21;6.17;;;5.60;;
9938;SDS011;5008;50.656;7.188;2023-03-05T13:32:49;6.50;;;5.80;;
9938;SDS011;5008;50.656;7.188;2023-03-05T13:35:18;7.40;;;6.40;;
9938;SDS011;5008;50.656;7.188;2023-03-05T13:37:46;6.60;;;5.97;;
9938;SDS011;5008;50.656;7.188;2023-03-05T13:40:17;6.93;;;6.13;;
9938;SDS011;5008;50.656;7.188;2023-03-05T13:42:48;7.33;;;5.87;;
9938;SDS011;5008;50.656;7.188;2023-03-05T13:45:21;7.83;;;5.73;;
9938;SDS011;5008;50.656;7.188;2023-03-05T13:47:51;6.70;;;6.10;;
9938;SDS011;5008;50.656;7.188;2023-03-05T13:50:21;7.33;;;6.50;;
9938;SDS011;5008;50.656;7.188;2023-03-05T13:52:50;8.60;;;6.63;;
9938;SDS011;5008;50.656;7.188;2023-03-05T13:55:18;7.00;;;6.30;;
9938;SDS011;5008;50.656;7.188;2023-03-05T13:57:49;6.97;;;5.93;;
9938;SDS011;5008;50.656;7.188;2023-03-05T14:00:32;6.83;;;6.23;;
9938;SDS011;5008;50.656;7.188;2023-03-05T14:03:06;6.67;;;5.93;;
9938;SDS011;5008;50.656;7.188;2023-03-05T14:05:35;6.37;;;5.53;;
9938;SDS011;5008;50.656;7.188;2023-03-05T14:08:02;6.40;;;5.80;;
9938;SDS011;5008;50.656;7.188;2023-03-05T14:10:32;6.87;;;5.97;;
9938;SDS011;5008;50.656;7.188;2023-03-05T14:13:02;6.27;;;5.67;;
9938;SDS011;5008;50.656;7.188;2023-03-05T14:15:31;6.97;;;6.37;;
9938;SDS011;5008;50.656;7.188;2023-03-05T14:18:15;6.30;;;5.70;;
9938;SDS011;5008;50.656;7.188;2023-03-05T14:20:57;6.73;;;6.03;;
9938;SDS011;5008;50.656;7.188;2023-03-05T14:23:32;6.43;;;5.83;;
9938;SDS011;5008;50.656;7.188;2023-03-05T14:26:16;6.83;;;5.60;;
9938;SDS011;5008;50.656;7.188;2023-03-05T14:28:49;7.23;;;6.47;;
9938;SDS011;5008;50.656;7.188;2023-03-05T14:31:17;7.10;;;6.40;;
9938;SDS011;5008;50.656;7.188;2023-03-05T14:33:45;8.87;;;7.10;;
9938;SDS011;5008;50.656;7.188;2023-03-05T14:36:13;7.83;;;6.60;;
9938;SDS011;5008;50.656;7.188;2023-03-05T14:38:47;7.40;;;6.57;;
9938;SDS011;5008;50.656;7.188;2023-03-05T14:41:21;8.20;;;7.40;;
9938;SDS011;5008;50.656;7.188;2023-03-05T14:43:58;7.57;;;6.83;;
9938;SDS011;5008;50.656;7.188;2023-03-05T14:46:25;9.43;;;6.87;;
9938;SDS011;5008;50.656;7.188;2023-03-05T14:48:52;8.17;;;7.37;;
9938;SDS011;5008;50.656;7.188;2023-03-05T14:51:19;8.00;;;7.10;;
9938;SDS011;5008;50.656;7.188;2023-03-05T14:53:46;8.00;;;7.20;;
9938;SDS011;5008;50.656;7.188;2023-03-05T14:56:16;7.23;;;6.63;;
9938;SDS011;5008;50.656;7.188;2023-03-05T14:58:48;8.10;;;7.30;;
9938;SDS011;5008;50.656;7.188;2023-03-05T15:01:24;7.53;;;6.83;;
9938;SDS011;5008;50.656;7.188;2023-03-05T15:03:51;9.70;;;7.37;;
9938;SDS011;5008;50.656;7.188;2023-03-05T15:06:19;7.73;;;7.03;;
9938;SDS011;5008;50.656;7.188;2023-03-05T15:08:50;7.63;;;6.83;;
9938;SDS011;5008;50.656;7.188;2023-03-05T15:11:17;7.40;;;6.63;;
9938;SDS011;5008;50.656;7.188;2023-03-05T15:13:46;8.17;;;7.00;;
9938;SDS011;5008;50.656;7.188;2023-03-05T15:16:15;9.07;;;7.80;;
9938;SDS011;5008;50.656;7.188;2023-03-05T15:18:44;8.33;;;7.40;;
9938;SDS011;5008;50.656;7.188;2023-03-05T15:21:11;8.53;;;7.30;;
9938;SDS011;5008;50.656;7.188;2023-03-05T15:23:38;7.73;;;6.93;;
9938;SDS011;5008;50.656;7.188;2023-03-05T15:26:06;7.63;;;6.93;;
9938;SDS011;5008;50.656;7.188;2023-03-05T15:28:34;8.27;;;7.23;;
9938;SDS011;5008;50.656;7.188;2023-03-05T15:31:02;7.57;;;6.73;;
9938;SDS011;5008;50.656;7.188;2023-03-05T15:33:31;7.10;;;6.40;;
9938;SDS011;5008;50.656;7.188;2023-03-05T15:35:58;7.33;;;6.43;;
9938;SDS011;5008;50.656;7.188;2023-03-05T15:38:25;6.97;;;6.13;;
9938;SDS011;5008;50.656;7.188;2023-03-05T15:40:52;7.07;;;6.37;;
9938;SDS011;5008;50.656;7.188;2023-03-05T15:43:19;6.63;;;6.03;;
9938;SDS011;5008;50.656;7.188;2023-03-05T15:45:46;6.47;;;5.87;;
9938;SDS011;5008;50.656;7.188;2023-03-05T15:48:21;6.87;;;6.17;;
9938;SDS011;5008;50.656;7.188;2023-03-05T15:50:49;6.47;;;5.93;;
9938;SDS011;5008;50.656;7.188;2023-03-05T15:53:16;7.43;;;5.33;;
9938;SDS011;5008;50.656;7.188;2023-03-05T15:55:44;6.70;;;6.10;;
9938;SDS011;5008;50.656;7.188;2023-03-05T15:58:12;6.03;;;5.33;;
9938;SDS011;5008;50.656;7.188;2023-03-05T16:00:40;5.50;;;5.00;;
9938;SDS011;5008;50.656;7.188;2023-03-05T16:03:14;5.37;;;4.90;;
9938;SDS011;5008;50.656;7.188;2023-03-05T16:05:41;5.20;;;4.70;;
9938;SDS011;5008;50.656;7.188;2023-03-05T16:08:09;5.50;;;4.77;;
9938;SDS011;5008;50.656;7.188;2023-03-05T16:10:36;5.63;;;4.60;;
9938;SDS011;5008;50.656;7.188;2023-03-05T16:13:06;6.43;;;5.10;;
9938;SDS011;5008;50.656;7.188;2023-03-05T16:15:36;6.00;;;5.27;;
9938;SDS011;5008;50.656;7.188;2023-03-05T16:18:05;4.90;;;4.50;;
9938;SDS011;5008;50.656;7.188;2023-03-05T16:20:35;5.30;;;4.80;;
9938;SDS011;5008;50.656;7.188;2023-03-05T16:23:02;4.83;;;4.40;;
9938;SDS011;5008;50.656;7.188;2023-03-05T16:25:30;4.70;;;4.00;;
9938;SDS011;5008;50.656;7.188;2023-03-05T16:27:57;4.60;;;4.20;;
9938;SDS011;5008;50.656;7.188;2023-03-05T16:30:24;5.43;;;4.50;;
9938;SDS011;5008;50.656;7.188;2023-03-05T16:32:51;5.00;;;4.50;;
9938;SDS011;5008;50.656;7.188;2023-03-05T16:35:18;6.37;;;4.43;;
9938;SDS011;5008;50.656;7.188;2023-03-05T16:37:45;6.80;;;5.83;;
9938;SDS011;5008;50.656;7.188;2023-03-05T16:40:11;6.93;;;5.00;;
9938;SDS011;5008;50.656;7.188;2023-03-05T16:42:40;4.67;;;4.00;;
9938;SDS011;5008;50.656;7.188;2023-03-05T16:45:07;5.83;;;4.60;;
9938;SDS011;5008;50.656;7.188;2023-03-05T16:47:35;6.17;;;4.87;;
9938;SDS011;5008;50.656;7.188;2023-03-05T16:50:02;4.83;;;4.30;;
9938;SDS011;5008;50.656;7.188;2023-03-05T16:52:29;4.73;;;4.33;;
9938;SDS011;5008;50.656;7.188;2023-03-05T16:54:56;5.90;;;4.60;;
9938;SDS011;5008;50.656;7.188;2023-03-05T16:57:23;5.27;;;4.80;;
9938;SDS011;5008;50.656;7.188;2023-03-05T16:59:51;5.30;;;4.80;;
9938;SDS011;5008;50.656;7.188;2023-03-05T17:02:18;5.73;;;4.77;;
9938;SDS011;5008;50.656;7.188;2023-03-05T17:04:45;5.30;;;4.80;;
9938;SDS011;5008;50.656;7.188;2023-03-05T17:07:12;6.13;;;5.53;;
9938;SDS011;5008;50.656;7.188;2023-03-05T17:09:39;6.70;;;5.13;;
9938;SDS011;5008;50.656;7.188;2023-03-05T17:12:20;5.40;;;4.90;;
9938;SDS011;5008;50.656;7.188;2023-03-05T17:14:48;5.40;;;4.90;;
9938;SDS011;5008;50.656;7.188;2023-03-05T17:17:16;6.03;;;5.37;;
9938;SDS011;5008;50.656;7.188;2023-03-05T17:19:45;8.83;;;5.70;;
9938;SDS011;5008;50.656;7.188;2023-03-05T17:22:13;7.90;;;6.17;;
9938;SDS011;5008;50.656;7.188;2023-03-05T17:24:40;5.50;;;5.00;;
9938;SDS011;5008;50.656;7.188;2023-03-05T17:27:07;5.30;;;4.90;;
9938;SDS011;5008;50.656;7.188;2023-03-05T17:29:35;5.20;;;4.70;;
9938;SDS011;5008;50.656;7.188;2023-03-05T17:32:02;5.77;;;5.17;;
9938;SDS011;5008;50.656;7.188;2023-03-05T17:34:30;5.83;;;5.27;;
9938;SDS011;5008;50.656;7.188;2023-03-05T17:36:57;6.73;;;5.20;;
9938;SDS011;5008;50.656;7.188;2023-03-05T17:39:24;6.87;;;6.17;;
9938;SDS011;5008;50.656;7.188;2023-03-05T17:41:50;6.17;;;5.10;;
9938;SDS011;5008;50.656;7.188;2023-03-05T17:44:17;6.10;;;5.60;;
9938;SDS011;5008;50.656;7.188;2023-03-05T17:46:49;7.00;;;6.30;;
9938;SDS011;5008;50.656;7.188;2023-03-05T17:49:16;6.97;;;6.30;;
9938;SDS011;5008;50.656;7.188;2023-03-05T17:51:44;8.13;;;6.70;;
9938;SDS011;5008;50.656;7.188;2023-03-05T17:54:11;7.83;;;6.90;;
9938;SDS011;5008;50.656;7.188;2023-03-05T17:56:37;8.33;;;7.23;;
9938;SDS011;5008;50.656;7.188;2023-03-05T17:59:04;7.17;;;6.20;;
9938;SDS011;5008;50.656;7.188;2023-03-05T18:01:31;7.50;;;6.70;;
9938;SDS011;5008;50.656;7.188;2023-03-05T18:03:59;7.30;;;6.60;;
9938;SDS011;5008;50.656;7.188;2023-03-05T18:06:26;7.67;;;6.87;;
9938;SDS011;5008;50.656;7.188;2023-03-05T18:08:55;6.83;;;6.23;;
9938;SDS011;5008;50.656;7.188;2023-03-05T18:11:22;8.03;;;7.23;;
9938;SDS011;5008;50.656;7.188;2023-03-05T18:13:49;8.50;;;6.63;;
9938;SDS011;5008;50.656;7.188;2023-03-05T18:16:16;6.17;;;5.57;;
9938;SDS011;5008;50.656;7.188;2023-03-05T18:18:43;7.07;;;5.67;;
9938;SDS011;5008;50.656;7.188;2023-03-05T18:21:10;6.07;;;5.53;;
9938;SDS011;5008;50.656;7.188;2023-03-05T18:23:36;6.00;;;5.47;;
9938;SDS011;5008;50.656;7.188;2023-03-05T18:26:05;6.87;;;5.20;;
9938;SDS011;5008;50.656;7.188;2023-03-05T18:28:31;6.23;;;5.53;;
9938;SDS011;5008;50.656;7.188;2023-03-05T18:30:58;6.97;;;6.23;;
9938;SDS011;5008;50.656;7.188;2023-03-05T18:33:26;7.07;;;6.00;;
9938;SDS011;5008;50.656;7.188;2023-03-05T18:35:53;6.87;;;5.23;;
9938;SDS011;5008;50.656;7.188;2023-03-05T18:38:21;5.93;;;5.40;;
9938;SDS011;5008;50.656;7.188;2023-03-05T18:40:49;6.10;;;5.50;;
9938;SDS011;5008;50.656;7.188;2023-03-05T18:43:23;6.63;;;6.00;;
9938;SDS011;5008;50.656;7.188;2023-03-05T18:45:51;7.10;;;5.47;;
9938;SDS011;5008;50.656;7.188;2023-03-05T18:48:19;7.43;;;6.73;;
9938;SDS011;5008;50.656;7.188;2023-03-05T18:50:47;7.07;;;5.80;;
9938;SDS011;5008;50.656;7.188;2023-03-05T18:53:15;7.90;;;6.13;;
9938;SDS011;5008;50.656;7.188;2023-03-05T18:55:42;5.90;;;5.30;;
9938;SDS011;5008;50.656;7.188;2023-03-05T18:58:09;6.17;;;5.57;;
9938;SDS011;5008;50.656;7.188;2023-03-05T19:00:39;9.00;;;6.40;;
9938;SDS011;5008;50.656;7.188;2023-03-05T19:03:09;7.03;;;6.33;;
9938;SDS011;5008;50.656;7.188;2023-03-05T19:05:36;7.97;;;7.17;;
9938;SDS011;5008;50.656;7.188;2023-03-05T19:08:03;7.30;;;6.57;;
9938;SDS011;5008;50.656;7.188;2023-03-05T19:10:31;8.30;;;7.50;;
9938;SDS011;5008;50.656;7.188;2023-03-05T19:12:58;8.93;;;8.03;;
9938;SDS011;5008;50.656;7.188;2023-03-05T19:15:43;10.47;;;9.37;;
9938;SDS011;5008;50.656;7.188;2023-03-05T19:18:10;9.97;;;8.80;;
9938;SDS011;5008;50.656;7.188;2023-03-05T19:20:37;10.10;;;9.10;;
9938;SDS011;5008;50.656;7.188;2023-03-05T19:23:04;9.57;;;8.40;;
9938;SDS011;5008;50.656;7.188;2023-03-05T19:25:32;9.77;;;8.53;;
9938;SDS011;5008;50.656;7.188;2023-03-05T19:27:59;8.57;;;7.77;;
9938;SDS011;5008;50.656;7.188;2023-03-05T19:30:26;9.33;;;8.00;;
9938;SDS011;5008;50.656;7.188;2023-03-05T19:32:54;8.43;;;7.30;;
9938;SDS011;5008;50.656;7.188;2023-03-05T19:35:21;8.37;;;7.43;;
9938;SDS011;5008;50.656;7.188;2023-03-05T19:37:48;14.13;;;10.80;;
9938;SDS011;5008;50.656;7.188;2023-03-05T19:40:15;12.17;;;9.20;;
9938;SDS011;5008;50.656;7.188;2023-03-05T19:42:42;14.50;;;10.50;;
9938;SDS011;5008;50.656;7.188;2023-03-05T19:45:09;11.83;;;10.13;;
9938;SDS011;5008;50.656;7.188;2023-03-05T19:47:36;9.70;;;8.50;;
9938;SDS011;5008;50.656;7.188;2023-03-05T19:50:05;10.63;;;8.63;;
9938;SDS011;5008;50.656;7.188;2023-03-05T19:52:32;11.67;;;9.33;;
9938;SDS011;5008;50.656;7.188;2023-03-05T19:54:59;10.80;;;8.47;;
9938;SDS011;5008;50.656;7.188;2023-03-05T19:57:26;9.77;;;7.73;;
9938;SDS011;5008;50.656;7.188;2023-03-05T19:59:53;9.10;;;7.90;;
9938;SDS011;5008;50.656;7.188;2023-03-05T20:02:20;8.90;;;8.00;;
9938;SDS011;5008;50.656;7.188;2023-03-05T20:04:47;8.17;;;7.37;;
9938;SDS011;5008;50.656;7.188;2023-03-05T20:07:15;9.67;;;7.03;;
9938;SDS011;5008;50.656;7.188;2023-03-05T20:09:42;8.20;;;7.40;;
9938;SDS011;5008;50.656;7.188;2023-03-05T20:12:09;8.10;;;7.40;;
9938;SDS011;5008;50.656;7.188;2023-03-05T20:14:36;8.23;;;7.43;;
9938;SDS011;5008;50.656;7.188;2023-03-05T20:17:03;8.30;;;6.97;;
9938;SDS011;5008;50.656;7.188;2023-03-05T20:19:30;7.40;;;6.70;;
9938;SDS011;5008;50.656;7.188;2023-03-05T20:21:57;8.07;;;6.90;;
9938;SDS011;5008;50.656;7.188;2023-03-05T20:27:11;7.13;;;6.43;;
9938;SDS011;5008;50.656;7.188;2023-03-05T20:29:38;7.33;;;6.63;;
9938;SDS011;5008;50.656;7.188;2023-03-05T20:32:05;7.70;;;6.83;;
9938;SDS011;5008;50.656;7.188;2023-03-05T20:34:35;7.33;;;6.27;;
9938;SDS011;5008;50.656;7.188;2023-03-05T20:37:02;7.20;;;6.47;;
9938;SDS011;5008;50.656;7.188;2023-03-05T20:39:29;8.10;;;7.30;;
9938;SDS011;5008;50.656;7.188;2023-03-05T20:41:58;7.30;;;6.60;;
9938;SDS011;5008;50.656;7.188;2023-03-05T20:44:25;7.83;;;7.03;;
9938;SDS011;5008;50.656;7.188;2023-03-05T20:46:51;8.23;;;6.87;;
9938;SDS011;5008;50.656;7.188;2023-03-05T20:49:26;7.77;;;6.77;;
9938;SDS011;5008;50.656;7.188;2023-03-05T20:51:53;8.17;;;7.33;;
9938;SDS011;5008;50.656;7.188;2023-03-05T20:54:20;7.73;;;6.93;;
9938;SDS011;5008;50.656;7.188;2023-03-05T20:56:47;9.73;;;7.70;;
9938;SDS011;5008;50.656;7.188;2023-03-05T20:59:16;7.97;;;7.17;;
9938;SDS011;5008;50.656;7.188;2023-03-05T21:01:43;9.13;;;7.60;;
9938;SDS011;5008;50.656;7.188;2023-03-05T21:04:09;8.47;;;7.63;;
9938;SDS011;5008;50.656;7.188;2023-03-05T21:06:37;8.27;;;7.47;;
9938;SDS011;5008;50.656;7.188;2023-03-05T21:09:04;9.37;;;8.23;;
9938;SDS011;5008;50.656;7.188;2023-03-05T21:11:31;9.47;;;8.13;;